sensor_id;sensor_type;location;lat;lon;timestamp;pressure;altitude;pressure_sealevel;temperature;humidity
19520;BME280;9904;52.246;20.898;2024-03-08T00:00:34;101002.84;;;-1.33;93.58
19520;BME280;9904;52.246;20.898;2024-03-08T00:03:01;100996.81;;;-1.38;93.17
19520;BME280;9904;52.246;20.898;2024-03-08T00:05:29;100996.97;;;-1.42;93.45
19520;BME280;9904;52.246;20.898;2024-03-08T00:07:56;100991.09;;;-1.51;94.30
19520;BME280;9904;52.246;20.898;2024-03-08T00:10:22;100998.09;;;-1.48;94.19
19520;BME280;9904;52.246;20.898;2024-03-08T00:12:52;100993.03;;;-1.56;94.80
19520;BME280;9904;52.246;20.898;2024-03-08T00:15:20;100987.88;;;-1.59;94.77
19520;BME280;9904;52.246;20.898;2024-03-08T00:17:49;100991.47;;;-1.62;95.04
19520;BME280;9904;52.246;20.898;2024-03-08T00:20:17;100991.47;;;-1.62;94.91
19520;BME280;9904;52.246;20.898;2024-03-08T00:22:46;100987.13;;;-1.63;95.49
19520;BME280;9904;52.246;20.898;2024-03-08T00:25:13;100983.50;;;-1.62;95.33
19520;BME280;9904;52.246;20.898;2024-03-08T00:27:40;100993.19;;;-1.59;95.32
19520;BME280;9904;52.246;20.898;2024-03-08T00:30:10;100985.25;;;-1.61;95.63
19520;BME280;9904;52.246;20.898;2024-03-08T00:32:39;100988.78;;;-1.60;95.85
19520;BME280;9904;52.246;20.898;2024-03-08T00:35:06;100987.13;;;-1.63;96.21
19520;BME280;9904;52.246;20.898;2024-03-08T00:37:36;100997.72;;;-1.63;95.82
19520;BME280;9904;52.246;20.898;2024-03-08T00:40:03;100995.44;;;-1.73;96.36
19520;BME280;9904;52.246;20.898;2024-03-08T00:42:31;100994.47;;;-1.71;96.75
19520;BME280;9904;52.246;20.898;2024-03-08T00:44:57;100975.47;;;-1.84;97.30
19520;BME280;9904;52.246;20.898;2024-03-08T00:47:24;100991.06;;;-1.74;97.40
19520;BME280;9904;52.246;20.898;2024-03-08T00:49:51;100981.41;;;-1.77;97.43
19520;BME280;9904;52.246;20.898;2024-03-08T00:52:18;100988.41;;;-1.74;97.17
19520;BME280;9904;52.246;20.898;2024-03-08T00:54:45;100972.69;;;-1.81;96.98
19520;BME280;9904;52.246;20.898;2024-03-08T00:57:12;100982.44;;;-1.81;97.22
19520;BME280;9904;52.246;20.898;2024-03-08T00:59:38;100977.31;;;-1.86;97.57
19520;BME280;9904;52.246;20.898;2024-03-08T01:02:05;100980.94;;;-1.88;97.80
19520;BME280;9904;52.246;20.898;2024-03-08T01:04:32;100979.28;;;-1.93;98.26
19520;BME280;9904;52.246;20.898;2024-03-08T01:06:59;100980.09;;;-1.89;98.09
19520;BME280;9904;52.246;20.898;2024-03-08T01:09:27;100979.19;;;-1.89;98.10
19520;BME280;9904;52.246;20.898;2024-03-08T01:11:54;100979.19;;;-1.89;97.78
19520;BME280;9904;52.246;20.898;2024-03-08T01:14:22;100981.94;;;-1.93;97.95
19520;BME280;9904;52.246;20.898;2024-03-08T01:16:49;100975.56;;;-1.87;98.75
19520;BME280;9904;52.246;20.898;2024-03-08T01:19:16;100973.72;;;-1.85;98.33
19520;BME280;9904;52.246;20.898;2024-03-08T01:21:43;100974.56;;;-1.83;98.09
19520;BME280;9904;52.246;20.898;2024-03-08T01:24:09;100963.34;;;-1.91;98.19
19520;BME280;9904;52.246;20.898;2024-03-08T01:26:36;100968.69;;;-1.93;98.31
19520;BME280;9904;52.246;20.898;2024-03-08T01:29:03;100962.75;;;-1.99;98.21
19520;BME280;9904;52.246;20.898;2024-03-08T01:31:30;100964.50;;;-2.00;98.73
19520;BME280;9904;52.246;20.898;2024-03-08T01:33:57;100965.19;;;-1.93;98.60
19520;BME280;9904;52.246;20.898;2024-03-08T01:36:24;100960.94;;;-1.99;98.68
19520;BME280;9904;52.246;20.898;2024-03-08T01:38:51;100960.19;;;-2.02;98.66
19520;BME280;9904;52.246;20.898;2024-03-08T01:41:18;100961.09;;;-2.03;98.35
19520;BME280;9904;52.246;20.898;2024-03-08T01:43:46;100954.88;;;-2.02;98.63
19520;BME280;9904;52.246;20.898;2024-03-08T01:46:15;100957.50;;;-2.01;98.50
19520;BME280;9904;52.246;20.898;2024-03-08T01:48:44;100958.44;;;-2.03;98.48
19520;BME280;9904;52.246;20.898;2024-03-08T01:51:12;100955.78;;;-2.03;98.33
19520;BME280;9904;52.246;20.898;2024-03-08T01:53:40;100951.44;;;-2.04;97.97
19520;BME280;9904;52.246;20.898;2024-03-08T01:56:08;100959.28;;;-2.01;98.34
19520;BME280;9904;52.246;20.898;2024-03-08T01:58:35;100952.44;;;-2.09;98.26
19520;BME280;9904;52.246;20.898;2024-03-08T02:01:02;100964.78;;;-2.08;98.51
19520;BME280;9904;52.246;20.898;2024-03-08T02:03:30;100955.91;;;-2.07;98.48
19520;BME280;9904;52.246;20.898;2024-03-08T02:05:58;100955.78;;;-2.03;98.13
19520;BME280;9904;52.246;20.898;2024-03-08T02:08:27;100945.09;;;-2.00;98.72
19520;BME280;9904;52.246;20.898;2024-03-08T02:10:54;100948.66;;;-2.01;98.51
19520;BME280;9904;52.246;20.898;2024-03-08T02:13:21;100945.38;;;-2.08;98.46
19520;BME280;9904;52.246;20.898;2024-03-08T02:18:22;100939.72;;;-2.24;98.69
19520;BME280;9904;52.246;20.898;2024-03-08T02:20:53;100928.25;;;-2.25;99.19
19520;BME280;9904;52.246;20.898;2024-03-08T02:23:21;100936.06;;;-2.20;99.10
19520;BME280;9904;52.246;20.898;2024-03-08T02:25:48;100937.06;;;-2.24;99.14
19520;BME280;9904;52.246;20.898;2024-03-08T02:28:15;100944.09;;;-2.23;99.25
19520;BME280;9904;52.246;20.898;2024-03-08T02:30:42;100938.09;;;-2.28;98.99
19520;BME280;9904;52.246;20.898;2024-03-08T02:33:08;100940.03;;;-2.33;99.08
19520;BME280;9904;52.246;20.898;2024-03-08T02:35:38;100940.69;;;-2.27;99.35
19520;BME280;9904;52.246;20.898;2024-03-08T02:38:04;100937.28;;;-2.30;99.34
19520;BME280;9904;52.246;20.898;2024-03-08T02:40:31;100938.88;;;-2.25;98.98
19520;BME280;9904;52.246;20.898;2024-03-08T02:42:58;100932.97;;;-2.33;99.23
19520;BME280;9904;52.246;20.898;2024-03-08T02:45:25;100932.97;;;-2.33;99.00
19520;BME280;9904;52.246;20.898;2024-03-08T02:47:51;100935.59;;;-2.33;99.20
19520;BME280;9904;52.246;20.898;2024-03-08T02:50:18;100931.97;;;-2.30;99.43
19520;BME280;9904;52.246;20.898;2024-03-08T02:52:44;100925.91;;;-2.34;99.16
19520;BME280;9904;52.246;20.898;2024-03-08T02:55:12;100919.75;;;-2.34;99.49
19520;BME280;9904;52.246;20.898;2024-03-08T02:57:43;100931.13;;;-2.31;99.30
19520;BME280;9904;52.246;20.898;2024-03-08T03:00:10;100916.34;;;-2.38;99.31
19520;BME280;9904;52.246;20.898;2024-03-08T03:02:37;100926.94;;;-2.38;99.50
19520;BME280;9904;52.246;20.898;2024-03-08T03:05:04;100923.25;;;-2.34;99.48
19520;BME280;9904;52.246;20.898;2024-03-08T03:07:32;100909.31;;;-2.39;99.55
19520;BME280;9904;52.246;20.898;2024-03-08T03:10:02;100918.94;;;-2.36;99.21
19520;BME280;9904;52.246;20.898;2024-03-08T03:12:29;100921.47;;;-2.33;99.77
19520;BME280;9904;52.246;20.898;2024-03-08T03:14:59;100929.63;;;-2.40;99.89
19520;BME280;9904;52.246;20.898;2024-03-08T03:17:26;100930.63;;;-2.42;100.00
19520;BME280;9904;52.246;20.898;2024-03-08T03:19:53;100924.63;;;-2.49;99.96
19520;BME280;9904;52.246;20.898;2024-03-08T03:22:19;100932.78;;;-2.53;100.00
19520;BME280;9904;52.246;20.898;2024-03-08T03:24:46;100922.75;;;-2.45;100.00
19520;BME280;9904;52.246;20.898;2024-03-08T03:27:13;100918.56;;;-2.52;99.92
19520;BME280;9904;52.246;20.898;2024-03-08T03:29:43;100922.66;;;-2.42;99.82
19520;BME280;9904;52.246;20.898;2024-03-08T03:32:12;100924.25;;;-2.36;99.80
19520;BME280;9904;52.246;20.898;2024-03-08T03:34:40;100926.22;;;-2.43;100.00
19520;BME280;9904;52.246;20.898;2024-03-08T03:37:07;100924.63;;;-2.49;99.95
19520;BME280;9904;52.246;20.898;2024-03-08T03:39:35;100924.09;;;-2.59;100.00
19520;BME280;9904;52.246;20.898;2024-03-08T03:42:07;100918.13;;;-2.65;100.00
19520;BME280;9904;52.246;20.898;2024-03-08T03:44:33;100915.44;;;-2.64;100.00
19520;BME280;9904;52.246;20.898;2024-03-08T03:47:00;100918.00;;;-2.61;100.00
19520;BME280;9904;52.246;20.898;2024-03-08T03:49:27;100919.00;;;-2.65;100.00
19520;BME280;9904;52.246;20.898;2024-03-08T03:51:55;100905.94;;;-2.71;100.00
19520;BME280;9904;52.246;20.898;2024-03-08T03:54:21;100911.13;;;-2.68;100.00
19520;BME280;9904;52.246;20.898;2024-03-08T03:56:48;100906.00;;;-2.73;100.00
19520;BME280;9904;52.246;20.898;2024-03-08T03:59:19;100910.22;;;-2.67;100.00
19520;BME280;9904;52.246;20.898;2024-03-08T04:01:45;100910.28;;;-2.68;100.00
19520;BME280;9904;52.246;20.898;2024-03-08T04:04:12;100906.81;;;-2.71;100.00
19520;BME280;9904;52.246;20.898;2024-03-08T04:06:38;100903.38;;;-2.73;100.00
19520;BME280;9904;52.246;20.898;2024-03-08T04:09:05;100909.44;;;-2.69;100.00
19520;BME280;9904;52.246;20.898;2024-03-08T04:11:32;100900.66;;;-2.71;100.00
19520;BME280;9904;52.246;20.898;2024-03-08T04:13:58;100902.25;;;-2.65;100.00
19520;BME280;9904;52.246;20.898;2024-03-08T04:16:25;100908.53;;;-2.69;100.00
19520;BME280;9904;52.246;20.898;2024-03-08T04:18:52;100900.75;;;-2.74;100.00
19520;BME280;9904;52.246;20.898;2024-03-08T04:21:18;100881.50;;;-2.79;100.00
19520;BME280;9904;52.246;20.898;2024-03-08T04:23:46;100898.91;;;-2.72;100.00
19520;BME280;9904;52.246;20.898;2024-03-08T04:26:12;100902.38;;;-2.70;100.00
19520;BME280;9904;52.246;20.898;2024-03-08T04:28:41;100898.97;;;-2.74;100.00
19520;BME280;9904;52.246;20.898;2024-03-08T04:31:08;100899.19;;;-2.80;100.00
19520;BME280;9904;52.246;20.898;2024-03-08T04:33:35;100895.66;;;-2.80;100.00
19520;BME280;9904;52.246;20.898;2024-03-08T04:36:02;100892.09;;;-2.79;100.00
19520;BME280;9904;52.246;20.898;2024-03-08T04:38:31;100892.09;;;-2.79;100.00
19520;BME280;9904;52.246;20.898;2024-03-08T04:40:59;100897.44;;;-2.81;100.00
19520;BME280;9904;52.246;20.898;2024-03-08T04:43:28;100894.81;;;-2.82;100.00
19520;BME280;9904;52.246;20.898;2024-03-08T04:45:56;100894.81;;;-2.82;100.00
19520;BME280;9904;52.246;20.898;2024-03-08T04:48:23;100893.97;;;-2.83;100.00
19520;BME280;9904;52.246;20.898;2024-03-08T04:50:49;100892.19;;;-2.82;100.00
19520;BME280;9904;52.246;20.898;2024-03-08T04:53:16;100892.50;;;-2.92;100.00
19520;BME280;9904;52.246;20.898;2024-03-08T04:55:44;100886.53;;;-2.98;100.00
19520;BME280;9904;52.246;20.898;2024-03-08T04:58:10;100892.50;;;-2.92;100.00
19520;BME280;9904;52.246;20.898;2024-03-08T05:00:37;100897.47;;;-2.82;100.00
19520;BME280;9904;52.246;20.898;2024-03-08T05:03:04;100903.72;;;-2.83;100.00
19520;BME280;9904;52.246;20.898;2024-03-08T05:05:31;100900.44;;;-2.92;100.00
19520;BME280;9904;52.246;20.898;2024-03-08T05:07:59;100904.78;;;-2.89;100.00
19520;BME280;9904;52.246;20.898;2024-03-08T05:10:27;100888.13;;;-2.93;100.00
19520;BME280;9904;52.246;20.898;2024-03-08T05:12:54;100896.69;;;-2.84;100.00
19520;BME280;9904;52.246;20.898;2024-03-08T05:15:22;100904.56;;;-2.83;100.00
19520;BME280;9904;52.246;20.898;2024-03-08T05:17:49;100889.88;;;-2.93;100.00
19520;BME280;9904;52.246;20.898;2024-03-08T05:20:16;100907.22;;;-2.83;100.00
19520;BME280;9904;52.246;20.898;2024-03-08T05:22:43;100903.38;;;-2.74;100.00
19520;BME280;9904;52.246;20.898;2024-03-08T05:25:10;100888.69;;;-2.83;100.00
19520;BME280;9904;52.246;20.898;2024-03-08T05:27:37;100893.75;;;-2.77;100.00
19520;BME280;9904;52.246;20.898;2024-03-08T05:30:05;100889.16;;;-2.72;100.00
19520;BME280;9904;52.246;20.898;2024-03-08T05:32:32;100895.81;;;-2.58;100.00
19520;BME280;9904;52.246;20.898;2024-03-08T05:34:59;100898.34;;;-2.55;100.00
19520;BME280;9904;52.246;20.898;2024-03-08T05:37:26;100894.94;;;-2.59;100.00
19520;BME280;9904;52.246;20.898;2024-03-08T05:39:52;100902.78;;;-2.56;100.00
19520;BME280;9904;52.246;20.898;2024-03-08T05:42:20;100905.31;;;-2.52;100.00
19520;BME280;9904;52.246;20.898;2024-03-08T05:44:47;100899.78;;;-2.45;100.00
19520;BME280;9904;52.246;20.898;2024-03-08T05:47:14;100900.63;;;-2.44;100.00
19520;BME280;9904;52.246;20.898;2024-03-08T05:49:42;100893.25;;;-2.34;100.00
19520;BME280;9904;52.246;20.898;2024-03-08T05:52:10;100898.25;;;-2.27;100.00
19520;BME280;9904;52.246;20.898;2024-03-08T05:54:37;100894.47;;;-2.19;100.00
19520;BME280;9904;52.246;20.898;2024-03-08T05:57:04;100890.84;;;-2.17;100.00
19520;BME280;9904;52.246;20.898;2024-03-08T05:59:30;100893.50;;;-2.17;100.00
19520;BME280;9904;52.246;20.898;2024-03-08T06:01:57;100894.91;;;-2.07;100.00
19520;BME280;9904;52.246;20.898;2024-03-08T06:04:24;100889.47;;;-2.03;100.00
19520;BME280;9904;52.246;20.898;2024-03-08T06:06:50;100896.34;;;-1.98;100.00
19520;BME280;9904;52.246;20.898;2024-03-08T06:09:18;100904.84;;;-1.88;100.00
19520;BME280;9904;52.246;20.898;2024-03-08T06:11:51;100896.84;;;-1.86;100.00
19520;BME280;9904;52.246;20.898;2024-03-08T06:14:18;100902.84;;;-1.81;100.00
19520;BME280;9904;52.246;20.898;2024-03-08T06:16:45;100897.28;;;-1.75;100.00
19520;BME280;9904;52.246;20.898;2024-03-08T06:19:13;100899.03;;;-1.74;100.00
19520;BME280;9904;52.246;20.898;2024-03-08T06:21:40;100909.31;;;-1.65;100.00
19520;BME280;9904;52.246;20.898;2024-03-08T06:24:07;100907.28;;;-1.58;100.00
19520;BME280;9904;52.246;20.898;2024-03-08T06:26:34;100909.34;;;-1.42;99.76
19520;BME280;9904;52.246;20.898;2024-03-08T06:29:04;100906.34;;;-1.33;99.73
19520;BME280;9904;52.246;20.898;2024-03-08T06:31:33;100903.19;;;-1.21;100.00
19520;BME280;9904;52.246;20.898;2024-03-08T06:34:00;100905.50;;;-1.12;99.42
19520;BME280;9904;52.246;20.898;2024-03-08T06:36:27;100910.28;;;-0.98;99.59
19520;BME280;9904;52.246;20.898;2024-03-08T06:38:54;100904.41;;;-0.84;98.51
19520;BME280;9904;52.246;20.898;2024-03-08T06:41:22;100906.81;;;-0.77;98.92
19520;BME280;9904;52.246;20.898;2024-03-08T06:43:48;100900.03;;;-0.64;98.21
19520;BME280;9904;52.246;20.898;2024-03-08T06:46:18;100903.09;;;-0.53;97.85
19520;BME280;9904;52.246;20.898;2024-03-08T06:48:47;100903.97;;;-0.52;97.14
19520;BME280;9904;52.246;20.898;2024-03-08T06:51:16;100900.88;;;-0.41;97.09
19520;BME280;9904;52.246;20.898;2024-03-08T06:53:43;100896.16;;;-0.35;96.73
19520;BME280;9904;52.246;20.898;2024-03-08T06:56:10;100904.41;;;-0.20;96.22
19520;BME280;9904;52.246;20.898;2024-03-08T06:58:37;100911.13;;;-0.11;96.24
19520;BME280;9904;52.246;20.898;2024-03-08T07:01:04;100903.31;;;-0.16;94.97
19520;BME280;9904;52.246;20.898;2024-03-08T07:03:34;100902.94;;;-0.27;95.10
19520;BME280;9904;52.246;20.898;2024-03-08T07:06:00;100907.72;;;-0.15;95.76
19520;BME280;9904;52.246;20.898;2024-03-08T07:08:29;100895.47;;;0.02;95.00
19520;BME280;9904;52.246;20.898;2024-03-08T07:10:56;100897.94;;;0.06;94.67
19520;BME280;9904;52.246;20.898;2024-03-08T07:13:25;100900.75;;;0.22;94.96
19520;BME280;9904;52.246;20.898;2024-03-08T07:15:53;100898.81;;;0.26;94.79
19520;BME280;9904;52.246;20.898;2024-03-08T07:18:21;100903.31;;;0.44;93.92
19520;BME280;9904;52.246;20.898;2024-03-08T07:20:48;100895.34;;;0.63;94.05
19520;BME280;9904;52.246;20.898;2024-03-08T07:23:15;100895.75;;;0.92;92.89
19520;BME280;9904;52.246;20.898;2024-03-08T07:26:02;100891.94;;;0.79;92.24
19520;BME280;9904;52.246;20.898;2024-03-08T07:28:28;100897.38;;;0.95;91.88
19520;BME280;9904;52.246;20.898;2024-03-08T07:30:58;100895.53;;;0.97;91.72
19520;BME280;9904;52.246;20.898;2024-03-08T07:33:43;100887.72;;;1.12;90.86
19520;BME280;9904;52.246;20.898;2024-03-08T07:36:11;100891.53;;;1.42;90.20
19520;BME280;9904;52.246;20.898;2024-03-08T07:38:38;100896.66;;;2.32;90.43
19520;BME280;9904;52.246;20.898;2024-03-08T07:41:04;100893.81;;;3.47;88.62
19520;BME280;9904;52.246;20.898;2024-03-08T07:43:31;100896.50;;;6.27;82.15
19520;BME280;9904;52.246;20.898;2024-03-08T07:45:59;100889.28;;;8.90;62.01
19520;BME280;9904;52.246;20.898;2024-03-08T07:48:26;100892.06;;;10.18;53.70
19520;BME280;9904;52.246;20.898;2024-03-08T07:50:53;100894.16;;;11.27;50.31
19520;BME280;9904;52.246;20.898;2024-03-08T07:53:20;100899.22;;;14.38;44.82
19520;BME280;9904;52.246;20.898;2024-03-08T07:55:47;100883.69;;;17.05;38.91
19520;BME280;9904;52.246;20.898;2024-03-08T07:58:14;100893.81;;;18.35;34.76
19520;BME280;9904;52.246;20.898;2024-03-08T08:00:41;100890.41;;;18.93;32.18
19520;BME280;9904;52.246;20.898;2024-03-08T08:03:10;100889.00;;;18.52;31.64
19520;BME280;9904;52.246;20.898;2024-03-08T08:05:36;100883.88;;;18.19;31.30
19520;BME280;9904;52.246;20.898;2024-03-08T08:08:07;100891.31;;;21.56;27.86
19520;BME280;9904;52.246;20.898;2024-03-08T08:10:35;100889.22;;;21.58;25.18
19520;BME280;9904;52.246;20.898;2024-03-08T08:13:01;100893.53;;;19.42;27.29
19520;BME280;9904;52.246;20.898;2024-03-08T08:15:31;100891.09;;;19.32;27.81
19520;BME280;9904;52.246;20.898;2024-03-08T08:18:01;100886.91;;;17.40;28.40
19520;BME280;9904;52.246;20.898;2024-03-08T08:20:29;100881.81;;;19.98;24.74
19520;BME280;9904;52.246;20.898;2024-03-08T08:22:56;100879.97;;;20.34;23.77
19520;BME280;9904;52.246;20.898;2024-03-08T08:25:23;100883.88;;;21.57;23.48
19520;BME280;9904;52.246;20.898;2024-03-08T08:27:51;100877.88;;;20.71;23.14
19520;BME280;9904;52.246;20.898;2024-03-08T08:30:19;100882.47;;;18.98;24.74
19520;BME280;9904;52.246;20.898;2024-03-08T08:32:46;100873.09;;;20.16;23.65
19520;BME280;9904;52.246;20.898;2024-03-08T08:35:13;100870.19;;;19.31;24.22
19520;BME280;9904;52.246;20.898;2024-03-08T08:37:40;100877.19;;;21.04;22.23
19520;BME280;9904;52.246;20.898;2024-03-08T08:40:08;100874.47;;;21.11;22.59
19520;BME280;9904;52.246;20.898;2024-03-08T08:42:41;100867.94;;;18.53;24.74
19520;BME280;9904;52.246;20.898;2024-03-08T08:45:08;100868.88;;;22.26;21.81
19520;BME280;9904;52.246;20.898;2024-03-08T08:47:43;100868.16;;;22.71;20.05
19520;BME280;9904;52.246;20.898;2024-03-08T08:50:13;100870.88;;;23.30;20.08
19520;BME280;9904;52.246;20.898;2024-03-08T08:52:40;100864.28;;;23.63;20.48
19520;BME280;9904;52.246;20.898;2024-03-08T08:55:07;100870.03;;;23.30;19.97
19520;BME280;9904;52.246;20.898;2024-03-08T08:57:34;100865.19;;;23.82;19.08
19520;BME280;9904;52.246;20.898;2024-03-08T09:00:03;100856.69;;;22.68;20.15
19520;BME280;9904;52.246;20.898;2024-03-08T09:02:34;100859.56;;;19.06;23.55
19520;BME280;9904;52.246;20.898;2024-03-08T09:05:01;100846.69;;;16.94;26.04
19520;BME280;9904;52.246;20.898;2024-03-08T09:07:29;100850.88;;;14.67;29.02
19520;BME280;9904;52.246;20.898;2024-03-08T09:09:56;100848.63;;;13.39;31.53
19520;BME280;9904;52.246;20.898;2024-03-08T09:12:25;100846.72;;;13.21;31.98
19520;BME280;9904;52.246;20.898;2024-03-08T09:14:52;100843.50;;;11.67;33.89
19520;BME280;9904;52.246;20.898;2024-03-08T09:17:19;100846.06;;;11.29;35.38
19520;BME280;9904;52.246;20.898;2024-03-08T09:19:47;100837.34;;;11.74;34.59
19520;BME280;9904;52.246;20.898;2024-03-08T09:22:14;100839.19;;;12.03;34.50
19520;BME280;9904;52.246;20.898;2024-03-08T09:24:41;100842.09;;;11.63;34.75
19520;BME280;9904;52.246;20.898;2024-03-08T09:27:09;100837.72;;;12.09;34.25
19520;BME280;9904;52.246;20.898;2024-03-08T09:29:36;100844.25;;;12.26;34.38
19520;BME280;9904;52.246;20.898;2024-03-08T09:32:03;100833.63;;;11.85;34.29
19520;BME280;9904;52.246;20.898;2024-03-08T09:34:29;100837.38;;;11.25;35.59
19520;BME280;9904;52.246;20.898;2024-03-08T09:37:03;100834.66;;;9.93;37.60
19520;BME280;9904;52.246;20.898;2024-03-08T09:39:31;100833.19;;;9.26;39.83
19520;BME280;9904;52.246;20.898;2024-03-08T09:42:01;100825.81;;;9.28;39.74
19520;BME280;9904;52.246;20.898;2024-03-08T09:44:27;100821.22;;;9.40;39.71
19520;BME280;9904;52.246;20.898;2024-03-08T09:46:58;100839.00;;;10.06;39.80
19520;BME280;9904;52.246;20.898;2024-03-08T09:49:25;100829.13;;;10.57;37.60
19520;BME280;9904;52.246;20.898;2024-03-08T09:51:52;100828.16;;;10.58;37.50
19520;BME280;9904;52.246;20.898;2024-03-08T09:54:19;100834.13;;;9.99;38.78
19520;BME280;9904;52.246;20.898;2024-03-08T09:56:51;100827.03;;;9.77;38.74
19520;BME280;9904;52.246;20.898;2024-03-08T09:59:18;100827.41;;;9.30;40.64
19520;BME280;9904;52.246;20.898;2024-03-08T10:01:54;100819.56;;;9.70;39.80
19520;BME280;9904;52.246;20.898;2024-03-08T10:04:23;100824.84;;;9.71;39.33
19520;BME280;9904;52.246;20.898;2024-03-08T10:06:49;100819.06;;;9.22;40.04
19520;BME280;9904;52.246;20.898;2024-03-08T10:09:16;100823.06;;;8.63;41.39
19520;BME280;9904;52.246;20.898;2024-03-08T10:11:43;100819.53;;;9.06;40.52
19520;BME280;9904;52.246;20.898;2024-03-08T10:14:10;100824.28;;;9.14;41.22
19520;BME280;9904;52.246;20.898;2024-03-08T10:16:39;100824.69;;;9.30;39.19
19520;BME280;9904;52.246;20.898;2024-03-08T10:19:06;100817.69;;;8.63;40.65
19520;BME280;9904;52.246;20.898;2024-03-08T10:21:33;100817.06;;;9.03;40.29
19520;BME280;9904;52.246;20.898;2024-03-08T10:24:02;100812.78;;;8.11;41.27
19520;BME280;9904;52.246;20.898;2024-03-08T10:26:30;100816.06;;;8.71;42.21
19520;BME280;9904;52.246;20.898;2024-03-08T10:28:56;100807.38;;;8.56;41.98
19520;BME280;9904;52.246;20.898;2024-03-08T10:31:24;100807.66;;;8.86;43.43
19520;BME280;9904;52.246;20.898;2024-03-08T10:33:52;100804.97;;;9.18;42.84
19520;BME280;9904;52.246;20.898;2024-03-08T10:36:18;100798.16;;;9.35;42.15
19520;BME280;9904;52.246;20.898;2024-03-08T10:38:46;100805.72;;;9.20;42.09
19520;BME280;9904;52.246;20.898;2024-03-08T10:41:15;100798.97;;;8.82;42.60
19520;BME280;9904;52.246;20.898;2024-03-08T10:46:30;100796.69;;;8.44;44.56
19520;BME280;9904;52.246;20.898;2024-03-08T10:49:04;100786.88;;;8.31;44.46
19520;BME280;9904;52.246;20.898;2024-03-08T10:51:35;100795.13;;;8.18;46.72
19520;BME280;9904;52.246;20.898;2024-03-08T10:54:03;100791.31;;;7.98;46.34
19520;BME280;9904;52.246;20.898;2024-03-08T10:56:31;100789.97;;;8.15;46.61
19520;BME280;9904;52.246;20.898;2024-03-08T10:58:58;100786.03;;;8.42;44.08
19520;BME280;9904;52.246;20.898;2024-03-08T11:01:25;100782.59;;;8.63;42.88
19520;BME280;9904;52.246;20.898;2024-03-08T11:03:52;100782.00;;;8.36;43.38
19520;BME280;9904;52.246;20.898;2024-03-08T11:09:30;100777.56;;;9.02;43.70
19520;BME280;9904;52.246;20.898;2024-03-08T11:14:49;100779.34;;;8.80;45.43
19520;BME280;9904;52.246;20.898;2024-03-08T11:20:16;100780.72;;;8.75;43.40
19520;BME280;9904;52.246;20.898;2024-03-08T11:22:52;100772.16;;;9.02;41.97
19520;BME280;9904;52.246;20.898;2024-03-08T11:25:39;100769.59;;;8.45;42.33
19520;BME280;9904;52.246;20.898;2024-03-08T11:28:11;100762.75;;;8.41;42.10
19520;BME280;9904;52.246;20.898;2024-03-08T11:30:46;100763.28;;;8.79;42.11
19520;BME280;9904;52.246;20.898;2024-03-08T11:33:15;100754.56;;;9.08;41.56
19520;BME280;9904;52.246;20.898;2024-03-08T11:35:42;100759.44;;;8.93;41.78
19520;BME280;9904;52.246;20.898;2024-03-08T11:38:12;100759.91;;;8.54;42.67
19520;BME280;9904;52.246;20.898;2024-03-08T11:40:39;100741.50;;;8.59;43.52
19520;BME280;9904;52.246;20.898;2024-03-08T11:43:06;100749.31;;;9.06;41.39
19520;BME280;9904;52.246;20.898;2024-03-08T11:45:36;100746.03;;;9.24;41.68
19520;BME280;9904;52.246;20.898;2024-03-08T11:48:04;100748.84;;;9.43;43.24
19520;BME280;9904;52.246;20.898;2024-03-08T11:50:31;100741.81;;;9.10;43.13
19520;BME280;9904;52.246;20.898;2024-03-08T11:53:03;100741.34;;;9.26;43.97
19520;BME280;9904;52.246;20.898;2024-03-08T11:55:31;100741.19;;;9.06;43.33
19520;BME280;9904;52.246;20.898;2024-03-08T11:58:05;100742.56;;;8.68;44.11
19520;BME280;9904;52.246;20.898;2024-03-08T12:00:34;100735.59;;;8.65;45.05
19520;BME280;9904;52.246;20.898;2024-03-08T12:03:06;100738.22;;;8.55;44.56
19520;BME280;9904;52.246;20.898;2024-03-08T12:05:33;100727.69;;;9.06;43.81
19520;BME280;9904;52.246;20.898;2024-03-08T12:08:02;100736.38;;;9.52;42.05
19520;BME280;9904;52.246;20.898;2024-03-08T12:10:29;100732.78;;;9.42;42.34
19520;BME280;9904;52.246;20.898;2024-03-08T12:12:58;100730.94;;;9.42;41.56
19520;BME280;9904;52.246;20.898;2024-03-08T12:15:30;100723.34;;;9.15;42.85
19520;BME280;9904;52.246;20.898;2024-03-08T12:18:00;100715.25;;;9.15;42.46
19520;BME280;9904;52.246;20.898;2024-03-08T12:20:28;100724.81;;;9.19;42.04
19520;BME280;9904;52.246;20.898;2024-03-08T12:22:58;100713.78;;;9.84;40.80
19520;BME280;9904;52.246;20.898;2024-03-08T12:25:27;100719.69;;;9.68;41.60
19520;BME280;9904;52.246;20.898;2024-03-08T12:27:54;100712.63;;;9.77;40.64
19520;BME280;9904;52.246;20.898;2024-03-08T12:30:26;100711.25;;;9.92;40.74
19520;BME280;9904;52.246;20.898;2024-03-08T12:35:28;100695.53;;;9.45;41.69
19520;BME280;9904;52.246;20.898;2024-03-08T12:37:58;100705.56;;;9.55;41.40
19520;BME280;9904;52.246;20.898;2024-03-08T12:40:27;100710.81;;;9.56;41.82
19520;BME280;9904;52.246;20.898;2024-03-08T12:42:55;100700.34;;;10.04;41.39
19520;BME280;9904;52.246;20.898;2024-03-08T12:45:23;100703.91;;;9.42;41.93
19520;BME280;9904;52.246;20.898;2024-03-08T12:47:54;100696.00;;;9.50;41.37
19520;BME280;9904;52.246;20.898;2024-03-08T12:50:22;100693.03;;;9.85;40.44
19520;BME280;9904;52.246;20.898;2024-03-08T12:52:49;100683.97;;;9.33;41.21
19520;BME280;9904;52.246;20.898;2024-03-08T12:55:19;100686.56;;;9.76;40.68
19520;BME280;9904;52.246;20.898;2024-03-08T12:57:46;100680.34;;;9.85;40.49
19520;BME280;9904;52.246;20.898;2024-03-08T13:00:14;100678.53;;;9.55;41.44
19520;BME280;9904;52.246;20.898;2024-03-08T13:02:46;100687.69;;;9.42;40.72
19520;BME280;9904;52.246;20.898;2024-03-08T13:05:13;100671.59;;;9.62;40.05
19520;BME280;9904;52.246;20.898;2024-03-08T13:07:43;100662.59;;;10.02;36.97
19520;BME280;9904;52.246;20.898;2024-03-08T13:10:14;100667.16;;;9.92;37.09